createdAt,value
2023-04-09T00:01:45.599Z,5.20
2023-04-09T00:04:13.137Z,7.00
2023-04-09T00:06:41.479Z,7.00
2023-04-09T00:09:08.940Z,5.00
2023-04-09T00:11:36.664Z,4.00
2023-04-09T00:14:04.119Z,7.00
2023-04-09T00:16:31.608Z,7.60
2023-04-09T00:18:59.046Z,7.00
2023-04-09T00:21:27.349Z,2.20
2023-04-09T00:23:55.027Z,7.20
2023-04-09T00:26:22.625Z,7.00
2023-04-09T00:28:50.296Z,6.60
2023-04-09T00:31:20.134Z,0.00
2023-04-09T00:33:48.664Z,4.40
2023-04-09T00:36:16.191Z,6.80
2023-04-09T00:38:43.821Z,5.20
2023-04-09T00:41:11.486Z,5.40
2023-04-09T00:43:38.905Z,0.00
2023-04-09T00:46:06.546Z,0.00
2023-04-09T00:48:34.323Z,5.20
2023-04-09T00:51:01.727Z,6.80
2023-04-09T00:53:29.297Z,7.00
2023-04-09T00:55:58.557Z,8.00
2023-04-09T00:58:26.166Z,9.60
2023-04-09T01:00:53.688Z,9.20
2023-04-09T01:03:21.676Z,7.40
2023-04-09T01:06:06.091Z,1.00
2023-04-09T01:08:46.069Z,8.00
2023-04-09T01:11:40.763Z,7.40
2023-04-09T01:14:35.262Z,6.00
2023-04-09T01:17:19.311Z,7.60
2023-04-09T01:20:24.894Z,4.40
2023-04-09T01:23:14.250Z,6.40
2023-04-09T01:25:58.191Z,6.80
2023-04-09T01:28:33.940Z,4.00
2023-04-09T01:31:07.900Z,6.40
2023-04-09T01:33:38.177Z,4.00
2023-04-09T01:36:07.970Z,3.80
2023-04-09T01:38:42.627Z,9.40
2023-04-09T01:41:17.438Z,9.00
2023-04-09T01:43:46.736Z,9.20
2023-04-09T01:46:15.071Z,9.20
2023-04-09T01:48:44.021Z,8.60
2023-04-09T01:51:14.510Z,6.20
2023-04-09T01:53:45.729Z,8.40
2023-04-09T01:56:13.373Z,3.80
2023-04-09T01:58:41.460Z,6.00
2023-04-09T02:01:41.632Z,8.60
2023-04-09T02:04:24.845Z,6.60
2023-04-09T02:07:06.702Z,7.80
2023-04-09T02:09:37.402Z,12.00
2023-04-09T02:12:07.334Z,13.40
2023-04-09T02:14:37.970Z,5.60
2023-04-09T02:17:05.865Z,13.40
2023-04-09T02:19:47.485Z,10.40
2023-04-09T02:22:16.894Z,10.00
2023-04-09T02:24:46.186Z,9.00
2023-04-09T02:27:13.790Z,10.40
2023-04-09T02:29:41.905Z,4.00
2023-04-09T02:32:09.625Z,8.00
2023-04-09T02:34:37.101Z,6.00
2023-04-09T02:37:04.722Z,11.60
2023-04-09T02:39:32.140Z,7.00
2023-04-09T02:41:59.658Z,9.00
2023-04-09T02:44:28.064Z,10.60
2023-04-09T02:46:56.585Z,10.80
2023-04-09T02:49:23.942Z,9.00
2023-04-09T02:51:51.789Z,11.60
2023-04-09T02:54:19.148Z,10.00
2023-04-09T02:56:46.739Z,4.00
2023-04-09T02:59:14.320Z,6.40
2023-04-09T03:01:42.083Z,10.20
2023-04-09T03:04:09.704Z,8.60
2023-04-09T03:06:37.366Z,6.60
2023-04-09T03:09:04.957Z,6.00
2023-04-09T03:11:32.500Z,7.40
2023-04-09T03:13:59.980Z,8.20
2023-04-09T03:16:27.425Z,7.00
2023-04-09T03:18:54.768Z,6.00
2023-04-09T03:21:22.476Z,6.60
2023-04-09T03:23:51.474Z,6.40
2023-04-09T03:26:19.067Z,4.80
2023-04-09T03:28:49.293Z,6.00
2023-04-09T03:31:17.804Z,9.00
2023-04-09T03:33:46.747Z,6.80
2023-04-09T03:36:14.731Z,4.00
2023-04-09T03:39:02.312Z,8.20
2023-04-09T03:41:38.754Z,6.00
2023-04-09T03:44:10.926Z,6.00
2023-04-09T03:46:58.993Z,6.00
2023-04-09T03:49:27.076Z,7.00
2023-04-09T03:51:58.144Z,7.80
2023-04-09T03:54:33.276Z,5.20
2023-04-09T03:57:02.156Z,5.20
2023-04-09T03:59:29.925Z,9.00
2023-04-09T04:01:57.708Z,9.00
2023-04-09T04:04:25.881Z,6.20
2023-04-09T04:06:56.949Z,7.00
2023-04-09T04:09:30.865Z,7.00
2023-04-09T04:12:09.196Z,7.00
2023-04-09T04:15:02.508Z,5.20
2023-04-09T04:17:36.085Z,6.60
2023-04-09T04:20:06.927Z,8.60
2023-04-09T04:22:41.398Z,9.00
2023-04-09T04:25:09.228Z,6.00
2023-04-09T04:27:36.508Z,11.60
2023-04-09T04:30:04.866Z,9.40
2023-04-09T04:32:51.953Z,10.80
2023-04-09T04:35:19.753Z,4.00
2023-04-09T04:37:51.350Z,9.00
2023-04-09T04:40:19.362Z,8.40
2023-04-09T04:42:48.124Z,10.00
2023-04-09T04:45:17.049Z,11.80
2023-04-09T04:47:49.394Z,9.60
2023-04-09T04:50:17.813Z,7.80
2023-04-09T04:52:59.423Z,7.00
2023-04-09T04:55:31.722Z,7.00
2023-04-09T04:58:02.055Z,5.00
2023-04-09T05:00:37.393Z,5.20
2023-04-09T05:03:05.133Z,5.00
2023-04-09T05:05:54.072Z,5.00
2023-04-09T05:08:22.774Z,5.20
2023-04-09T05:10:56.333Z,4.00
2023-04-09T05:13:30.853Z,3.00
2023-04-09T05:15:59.624Z,4.40
2023-04-09T05:18:29.366Z,4.00
2023-04-09T05:20:57.122Z,5.00
2023-04-09T05:23:26.740Z,4.75
2023-04-09T05:25:54.373Z,3.00
2023-04-09T05:28:28.897Z,3.00
2023-04-09T05:31:12.095Z,5.00
2023-04-09T05:33:46.211Z,3.00
2023-04-09T05:36:20.146Z,4.50
2023-04-09T05:38:48.257Z,2.00
2023-04-09T05:41:16.141Z,2.00
2023-04-09T05:44:00.800Z,2.00
2023-04-09T05:46:29.754Z,1.00
2023-04-09T05:48:57.324Z,4.00
2023-04-09T05:51:26.690Z,2.25
2023-04-09T05:53:56.076Z,2.00
2023-04-09T05:56:23.831Z,2.00
2023-04-09T05:58:55.246Z,3.00
2023-04-09T06:01:23.201Z,3.25
2023-04-09T06:03:51.095Z,2.50
2023-04-09T06:06:19.067Z,2.00
2023-04-09T06:08:46.290Z,1.00
2023-04-09T06:11:13.825Z,2.25
2023-04-09T06:13:42.034Z,2.00
2023-04-09T06:16:10.220Z,3.00
2023-04-09T06:18:37.999Z,2.00
2023-04-09T06:21:09.750Z,1.40
2023-04-09T06:23:37.625Z,1.40
2023-04-09T06:26:05.041Z,2.00
2023-04-09T06:28:32.719Z,1.40
2023-04-09T06:31:00.564Z,1.60
2023-04-09T06:33:28.100Z,1.40
2023-04-09T06:35:55.718Z,1.20
2023-04-09T06:38:23.740Z,2.00
2023-04-09T06:40:52.186Z,2.00
2023-04-09T06:43:19.776Z,2.60
2023-04-09T06:45:51.719Z,2.00
2023-04-09T06:48:19.233Z,2.00
2023-04-09T06:50:47.013Z,2.00
2023-04-09T06:53:15.671Z,1.60
2023-04-09T06:55:43.648Z,1.00
2023-04-09T06:58:11.557Z,3.00
2023-04-09T07:00:39.365Z,3.00
2023-04-09T07:03:09.459Z,2.60
2023-04-09T07:05:37.490Z,3.00
2023-04-09T07:08:05.330Z,1.00
2023-04-09T07:10:33.128Z,3.40
2023-04-09T07:13:00.943Z,0.40
2023-04-09T07:15:28.495Z,0.80
2023-04-09T07:17:57.976Z,2.60
2023-04-09T07:20:25.809Z,2.00
2023-04-09T07:22:53.278Z,0.80
2023-04-09T07:25:21.660Z,2.00
2023-04-09T07:27:50.085Z,2.00
2023-04-09T07:30:18.292Z,1.00
2023-04-09T07:32:46.366Z,1.40
2023-04-09T07:35:14.060Z,2.00
2023-04-09T07:37:41.903Z,2.00
2023-04-09T07:40:10.118Z,1.00
2023-04-09T07:42:39.451Z,1.40
2023-04-09T07:45:07.654Z,2.40
2023-04-09T07:47:35.434Z,2.00
2023-04-09T07:50:03.093Z,0.00
2023-04-09T07:52:31.012Z,1.00
2023-04-09T07:54:58.646Z,1.20
2023-04-09T07:57:26.682Z,1.00
2023-04-09T07:59:54.611Z,1.00
2023-04-09T08:02:23.615Z,0.00
2023-04-09T08:04:51.514Z,1.00
2023-04-09T08:07:19.204Z,0.00
2023-04-09T08:09:46.894Z,1.00
2023-04-09T08:12:14.414Z,1.00
2023-04-09T08:14:42.404Z,0.00
2023-04-09T08:17:10.060Z,0.20
2023-04-09T08:19:40.466Z,1.00
2023-04-09T08:22:09.724Z,0.00
2023-04-09T08:24:37.741Z,1.00
2023-04-09T08:27:05.388Z,0.20
2023-04-09T08:29:32.736Z,1.00
2023-04-09T08:32:00.382Z,1.00
2023-04-09T08:34:28.494Z,0.00
2023-04-09T08:36:57.171Z,1.00
2023-04-09T08:39:25.622Z,0.80
2023-04-09T08:41:54.066Z,0.00
2023-04-09T08:44:22.339Z,1.00
2023-04-09T08:46:50.159Z,0.00
2023-04-09T08:49:17.780Z,1.00
2023-04-09T08:51:49.925Z,0.40
2023-04-09T08:54:20.280Z,1.00
2023-04-09T08:56:48.199Z,1.00
2023-04-09T08:59:19.774Z,1.00
2023-04-09T09:01:49.647Z,0.40
2023-04-09T09:04:17.627Z,0.20
2023-04-09T09:06:46.109Z,1.00
2023-04-09T09:09:19.307Z,1.00
2023-04-09T09:11:50.434Z,0.00
2023-04-09T09:14:20.121Z,1.00
2023-04-09T09:17:00.171Z,0.20
2023-04-09T09:19:27.826Z,1.00
2023-04-09T09:21:58.867Z,0.00
2023-04-09T09:24:26.567Z,0.40
2023-04-09T09:26:54.861Z,1.00
2023-04-09T09:29:22.369Z,1.00
2023-04-09T09:31:52.205Z,0.00
2023-04-09T09:34:21.240Z,0.60
2023-04-09T09:36:49.125Z,1.00
2023-04-09T09:39:18.162Z,1.00
2023-04-09T09:41:47.576Z,0.00
2023-04-09T09:44:32.505Z,1.00
2023-04-09T09:47:01.142Z,0.40
2023-04-09T09:49:28.737Z,0.80
2023-04-09T09:52:00.401Z,1.00
2023-04-09T09:54:33.270Z,0.40
2023-04-09T09:57:06.126Z,1.00
2023-04-09T09:59:38.248Z,1.00
2023-04-09T10:02:07.971Z,1.00
2023-04-09T10:04:36.209Z,0.00
2023-04-09T10:07:06.012Z,1.00
2023-04-09T10:09:38.160Z,0.00
2023-04-09T10:12:09.373Z,1.00
2023-04-09T10:14:37.682Z,1.00
2023-04-09T10:17:05.206Z,2.00
2023-04-09T10:19:39.088Z,1.00
2023-04-09T10:22:13.103Z,0.00
2023-04-09T10:24:41.655Z,0.80
2023-04-09T10:27:17.761Z,1.00
2023-04-09T10:29:47.570Z,1.00
2023-04-09T10:32:23.905Z,1.00
2023-04-09T10:34:52.365Z,1.00
2023-04-09T10:37:27.549Z,1.00
2023-04-09T10:39:55.538Z,0.00
2023-04-09T10:42:42.742Z,1.00
2023-04-09T10:45:12.062Z,1.00
2023-04-09T10:47:43.217Z,0.00
2023-04-09T10:50:28.404Z,0.60
2023-04-09T10:52:58.674Z,0.60
2023-04-09T10:55:40.679Z,1.00
2023-04-09T10:58:13.119Z,1.00
2023-04-09T11:00:43.726Z,1.00
2023-04-09T11:03:33.515Z,1.00
2023-04-09T11:06:11.448Z,1.00
2023-04-09T11:08:39.479Z,1.00
2023-04-09T11:11:07.155Z,1.00
2023-04-09T11:13:34.844Z,1.00
2023-04-09T11:16:07.408Z,0.60
2023-04-09T11:18:37.475Z,1.00
2023-04-09T11:21:05.441Z,1.00
2023-04-09T11:23:33.927Z,0.80
2023-04-09T11:26:02.804Z,1.00
2023-04-09T11:28:30.213Z,0.00
2023-04-09T11:30:57.736Z,1.20
2023-04-09T11:33:33.470Z,0.60
2023-04-09T11:36:01.891Z,1.00
2023-04-09T11:38:31.974Z,1.00
2023-04-09T11:40:59.294Z,0.60
2023-04-09T11:43:26.693Z,1.00
2023-04-09T11:45:55.871Z,0.00
2023-04-09T11:48:25.156Z,1.00
2023-04-09T11:50:52.919Z,1.00
2023-04-09T11:53:22.039Z,1.00
2023-04-09T11:55:53.685Z,0.00
2023-04-09T11:58:26.538Z,1.00
2023-04-09T12:00:58.165Z,0.40
2023-04-09T12:03:37.896Z,0.60
2023-04-09T12:06:07.037Z,1.00
2023-04-09T12:08:37.765Z,1.00
2023-04-09T12:11:32.892Z,0.00
2023-04-09T12:14:03.871Z,0.00
2023-04-09T12:16:35.758Z,1.75
2023-04-09T12:19:10.702Z,1.00
2023-04-09T12:21:56.446Z,1.25
2023-04-09T12:24:25.346Z,1.00
2023-04-09T12:26:53.235Z,0.75
2023-04-09T12:29:21.682Z,0.50
2023-04-09T12:31:49.236Z,1.00
2023-04-09T12:34:16.865Z,2.00
2023-04-09T12:36:44.733Z,2.00
2023-04-09T12:39:12.292Z,1.00
2023-04-09T12:41:39.904Z,1.00
2023-04-09T12:44:07.986Z,2.00
2023-04-09T12:46:35.789Z,1.25
2023-04-09T12:49:03.237Z,0.50
2023-04-09T12:51:31.073Z,1.00
2023-04-09T12:53:58.705Z,0.50
2023-04-09T12:56:28.208Z,1.00
2023-04-09T12:58:57.361Z,2.50
2023-04-09T13:01:24.941Z,2.25
2023-04-09T13:03:53.127Z,2.75
2023-04-09T13:06:22.694Z,1.00
2023-04-09T13:08:50.205Z,2.00
2023-04-09T13:11:17.813Z,1.75
2023-04-09T13:13:45.366Z,5.25
2023-04-09T13:16:13.053Z,4.00
2023-04-09T13:18:40.656Z,14.25
2023-04-09T13:21:08.650Z,5.00
2023-04-09T13:23:36.359Z,2.00
2023-04-09T13:26:04.128Z,2.00
2023-04-09T13:28:32.004Z,3.00
2023-04-09T13:30:59.863Z,6.00
2023-04-09T13:33:27.433Z,3.75
2023-04-09T13:35:55.308Z,0.25
2023-04-09T13:38:22.899Z,2.00
2023-04-09T13:40:50.741Z,1.25
2023-04-09T13:43:18.313Z,2.50
2023-04-09T13:45:45.843Z,1.50
2023-04-09T13:48:15.587Z,1.75
2023-04-09T13:50:43.491Z,0.25
2023-04-09T13:53:11.188Z,0.00
2023-04-09T13:55:39.788Z,1.00
2023-04-09T13:58:07.549Z,1.00
2023-04-09T14:00:36.962Z,2.00
2023-04-09T14:03:05.092Z,1.25
2023-04-09T14:05:36.202Z,1.00
2023-04-09T14:08:03.843Z,2.00
2023-04-09T14:10:31.689Z,1.00
2023-04-09T14:12:59.300Z,1.00
2023-04-09T14:15:27.178Z,1.00
2023-04-09T14:17:54.798Z,1.50
2023-04-09T14:20:24.929Z,2.50
2023-04-09T14:22:52.370Z,1.50
2023-04-09T14:25:20.245Z,1.00
2023-04-09T14:27:47.755Z,1.00
2023-04-09T14:30:15.178Z,1.50
2023-04-09T14:32:43.554Z,1.00
2023-04-09T14:35:11.268Z,2.00
2023-04-09T14:37:41.165Z,2.00
2023-04-09T14:40:09.602Z,1.00
2023-04-09T14:42:37.338Z,2.00
2023-04-09T14:45:05.127Z,2.00
2023-04-09T14:47:32.633Z,1.00
2023-04-09T14:50:00.566Z,1.75
2023-04-09T14:52:30.761Z,2.00
2023-04-09T14:54:58.597Z,2.00
2023-04-09T14:57:26.520Z,2.00
2023-04-09T14:59:54.001Z,2.75
2023-04-09T15:02:22.094Z,2.00
2023-04-09T15:04:49.840Z,1.50
2023-04-09T15:07:17.602Z,2.00
2023-04-09T15:09:45.003Z,2.00
2023-04-09T15:12:12.604Z,0.25
2023-04-09T15:14:40.170Z,2.00
2023-04-09T15:17:07.881Z,1.25
2023-04-09T15:19:35.613Z,1.00
2023-04-09T15:22:03.254Z,2.00
2023-04-09T15:24:30.733Z,1.00
2023-04-09T15:26:58.316Z,2.00
2023-04-09T15:29:25.929Z,2.00
2023-04-09T15:31:54.007Z,2.00
2023-04-09T15:34:21.818Z,2.00
2023-04-09T15:36:49.199Z,1.00
2023-04-09T15:39:17.303Z,2.00
2023-04-09T15:41:45.212Z,2.00
2023-04-09T15:44:12.846Z,1.00
2023-04-09T15:46:40.439Z,1.00
2023-04-09T15:49:07.914Z,2.00
2023-04-09T15:51:35.341Z,1.75
2023-04-09T15:54:02.847Z,1.00
2023-04-09T15:56:30.358Z,1.00
2023-04-09T15:58:59.101Z,1.60
2023-04-09T16:01:26.518Z,2.00
2023-04-09T16:03:54.168Z,2.00
2023-04-09T16:06:22.063Z,1.00
2023-04-09T16:08:49.861Z,1.00
2023-04-09T16:11:17.954Z,1.80
2023-04-09T16:13:45.448Z,2.00
2023-04-09T16:16:13.275Z,1.00
2023-04-09T16:18:40.978Z,1.00
2023-04-09T16:21:08.625Z,1.20
2023-04-09T16:23:36.889Z,2.00
2023-04-09T16:26:04.564Z,1.60
2023-04-09T16:28:32.206Z,1.60
2023-04-09T16:31:00.020Z,2.00
2023-04-09T16:33:27.782Z,2.60
2023-04-09T16:35:55.334Z,1.00
2023-04-09T16:38:24.056Z,2.00
2023-04-09T16:40:51.521Z,1.00
2023-04-09T16:43:19.158Z,2.00
2023-04-09T16:45:46.848Z,2.00
2023-04-09T16:48:14.351Z,1.80
2023-04-09T16:50:42.968Z,2.20
2023-04-09T16:53:10.533Z,1.00
2023-04-09T16:55:37.868Z,1.00
2023-04-09T16:58:05.177Z,1.60
2023-04-09T17:00:32.713Z,2.00
2023-04-09T17:03:00.433Z,2.60
2023-04-09T17:05:27.784Z,2.00
2023-04-09T17:07:55.591Z,2.00
2023-04-09T17:10:22.898Z,3.00
2023-04-09T17:12:50.861Z,2.20
2023-04-09T17:15:18.358Z,2.20
2023-04-09T17:17:46.381Z,2.00
2023-04-09T17:20:13.872Z,2.00
2023-04-09T17:22:41.376Z,2.00
2023-04-09T17:25:09.599Z,1.00
2023-04-09T17:27:37.042Z,1.60
2023-04-09T17:30:04.818Z,2.00
2023-04-09T17:32:32.242Z,2.00
2023-04-09T17:34:59.850Z,1.20
2023-04-09T17:37:30.229Z,2.00
2023-04-09T17:39:57.534Z,3.00
2023-04-09T17:42:24.868Z,2.00
2023-04-09T17:44:52.466Z,1.80
2023-04-09T17:47:20.071Z,2.00
2023-04-09T17:49:47.639Z,2.00
2023-04-09T17:52:15.099Z,3.00
2023-04-09T17:54:45.425Z,3.00
2023-04-09T17:57:13.053Z,2.40
2023-04-09T17:59:41.208Z,1.00
2023-04-09T18:02:08.675Z,1.00
2023-04-09T18:04:36.383Z,2.00
2023-04-09T18:07:04.359Z,2.00
2023-04-09T18:09:32.245Z,3.20
2023-04-09T18:12:01.653Z,2.00
2023-04-09T18:14:32.561Z,2.20
2023-04-09T18:17:00.118Z,2.00
2023-04-09T18:19:27.451Z,3.60
2023-04-09T18:21:54.880Z,4.00
2023-04-09T18:24:22.126Z,2.60
2023-04-09T18:26:49.853Z,3.60
2023-04-09T18:29:17.044Z,4.20
2023-04-09T18:31:44.521Z,6.00
2023-04-09T18:34:12.026Z,4.20
2023-04-09T18:36:39.310Z,6.00
2023-04-09T18:39:06.786Z,4.80
2023-04-09T18:41:34.022Z,5.80
2023-04-09T18:44:01.275Z,4.40
2023-04-09T18:46:28.631Z,2.00
2023-04-09T18:48:56.570Z,1.20
2023-04-09T18:51:23.812Z,5.00
2023-04-09T18:53:53.170Z,5.00
2023-04-09T18:56:21.223Z,5.00
2023-04-09T18:58:49.193Z,5.80
2023-04-09T19:01:17.693Z,3.80
2023-04-09T19:03:45.669Z,4.60
2023-04-09T19:06:18.458Z,5.40
2023-04-09T19:08:46.739Z,6.00
2023-04-09T19:11:14.759Z,5.80
2023-04-09T19:13:42.143Z,5.40
2023-04-09T19:16:09.537Z,5.00
2023-04-09T19:18:38.002Z,5.80
2023-04-09T19:21:07.715Z,5.00
2023-04-09T19:23:35.435Z,6.00
2023-04-09T19:26:03.505Z,3.00
2023-04-09T19:28:31.282Z,5.00
2023-04-09T19:31:00.110Z,5.80
2023-04-09T19:33:29.329Z,5.00
2023-04-09T19:35:56.614Z,3.00
2023-04-09T19:38:23.894Z,2.00
2023-04-09T19:40:51.428Z,3.40
2023-04-09T19:43:18.687Z,5.80
2023-04-09T19:45:46.107Z,7.60
2023-04-09T19:48:13.383Z,5.00
2023-04-09T19:50:41.348Z,7.00
2023-04-09T19:53:08.911Z,4.60
2023-04-09T19:55:36.701Z,5.00
2023-04-09T19:58:05.676Z,7.00
2023-04-09T20:00:33.844Z,5.00
2023-04-09T20:03:01.717Z,5.00
2023-04-09T20:05:29.643Z,5.00
2023-04-09T20:07:56.974Z,3.00
2023-04-09T20:10:24.150Z,4.60
2023-04-09T20:12:52.170Z,5.00
2023-04-09T20:15:22.607Z,1.40
2023-04-09T20:17:50.937Z,3.80
2023-04-09T20:20:20.142Z,2.00
2023-04-09T20:22:56.303Z,5.80
2023-04-09T20:25:24.837Z,3.60
2023-04-09T20:27:55.462Z,3.60
2023-04-09T20:30:23.005Z,4.20
2023-04-09T20:32:50.731Z,3.20
2023-04-09T20:35:18.340Z,5.20
2023-04-09T20:37:48.636Z,5.00
2023-04-09T20:40:17.225Z,2.00
2023-04-09T20:42:44.687Z,4.00
2023-04-09T20:45:12.420Z,4.20
2023-04-09T20:47:41.261Z,4.40
2023-04-09T20:50:09.121Z,5.00
2023-04-09T20:52:37.843Z,4.00
2023-04-09T20:55:06.633Z,2.00
2023-04-09T20:57:34.075Z,1.60
2023-04-09T21:00:01.607Z,1.00
2023-04-09T21:02:29.517Z,4.40
2023-04-09T21:05:00.030Z,4.00
2023-04-09T21:07:31.076Z,3.60
2023-04-09T21:09:58.741Z,2.80
2023-04-09T21:12:28.214Z,4.80
2023-04-09T21:14:56.231Z,1.40
2023-04-09T21:17:23.746Z,4.20
2023-04-09T21:19:53.406Z,4.00
2023-04-09T21:22:20.949Z,4.40
2023-04-09T21:24:53.017Z,2.00
2023-04-09T21:27:20.848Z,0.00
2023-04-09T21:29:48.305Z,3.20
2023-04-09T21:32:15.864Z,4.00
2023-04-09T21:34:43.670Z,3.20
2023-04-09T21:37:11.381Z,3.80
2023-04-09T21:39:38.962Z,3.20
2023-04-09T21:42:07.570Z,5.00
2023-04-09T21:44:35.336Z,2.40
2023-04-09T21:47:07.740Z,2.00
2023-04-09T21:49:42.177Z,5.00
2023-04-09T21:52:15.042Z,2.00
2023-04-09T21:54:43.693Z,4.40
2023-04-09T21:57:11.975Z,4.00
2023-04-09T21:59:41.542Z,5.00
2023-04-09T22:02:09.800Z,3.20
2023-04-09T22:04:37.925Z,4.20
2023-04-09T22:07:05.567Z,2.00
2023-04-09T22:09:33.037Z,2.40
2023-04-09T22:12:00.915Z,2.00
2023-04-09T22:14:29.823Z,5.00
2023-04-09T22:16:58.611Z,0.00
2023-04-09T22:19:26.770Z,4.00
2023-04-09T22:21:54.977Z,4.00
2023-04-09T22:24:30.583Z,4.00
2023-04-09T22:26:59.282Z,3.20
2023-04-09T22:29:28.041Z,2.20
2023-04-09T22:31:56.145Z,4.00
2023-04-09T22:34:23.797Z,4.00
2023-04-09T22:36:51.449Z,2.20
2023-04-09T22:39:19.075Z,5.20
2023-04-09T22:41:46.557Z,4.00
2023-04-09T22:44:14.196Z,3.60
2023-04-09T22:46:41.887Z,4.00
2023-04-09T22:49:09.895Z,4.20
2023-04-09T22:51:38.551Z,5.20
2023-04-09T22:54:07.818Z,5.00
2023-04-09T22:56:36.839Z,2.20
2023-04-09T22:59:04.432Z,2.20
2023-04-09T23:01:33.177Z,4.20
2023-04-09T23:04:00.830Z,4.00
2023-04-09T23:06:29.120Z,5.00
2023-04-09T23:08:56.557Z,4.00
2023-04-09T23:11:24.063Z,4.00
2023-04-09T23:13:51.535Z,4.60
2023-04-09T23:16:19.192Z,5.00
2023-04-09T23:18:46.736Z,5.20
2023-04-09T23:21:14.145Z,4.00
2023-04-09T23:23:41.531Z,5.60
2023-04-09T23:26:08.996Z,3.80
2023-04-09T23:28:36.472Z,6.80
2023-04-09T23:31:04.079Z,5.20
2023-04-09T23:33:32.745Z,2.60
2023-04-09T23:36:00.195Z,7.00
2023-04-09T23:38:27.960Z,6.20
2023-04-09T23:40:55.783Z,4.00
2023-04-09T23:43:23.221Z,4.20
2023-04-09T23:45:50.849Z,6.40
2023-04-09T23:48:18.558Z,5.00
2023-04-09T23:50:46.533Z,5.80
2023-04-09T23:53:13.987Z,4.20
2023-04-09T23:55:42.840Z,4.00
2023-04-09T23:58:10.357Z,4.00
